Time;durP1;ratioP1;P1;durP2;ratioP2;P2;SDS_P1;SDS_P2;PMS_P1;PMS_P2;Temp;Humidity;BMP_temperature;BMP_pressure;BME280_temperature;BME280_humidity;BME280_pressure;Samples;Min_cycle;Max_cycle;Signal;HPM_P1;HPM_P2
2022/07/09 00:00:14;;;;;;;3.47;2.92;;;;;;;;;;5094787;28;20454;-74
2022/07/09 00:02:41;;;;;;;3.70;2.93;;;;;;;;;;5095043;28;20404;-74
2022/07/09 00:05:07;;;;;;;6.50;3.57;;;;;;;;;;5094738;28;20051;-73
2022/07/09 00:07:42;;;;;;;4.47;2.42;;;;;;;;;;5094768;28;20047;-74
2022/07/09 00:10:08;;;;;;;4.38;2.92;;;;;;;;;;5094930;28;20043;-74
2022/07/09 00:12:35;;;;;;;4.40;3.33;;;;;;;;;;5094919;28;20044;-74
2022/07/09 00:15:01;;;;;;;4.45;3.00;;;;;;;;;;5094955;28;20052;-74
2022/07/09 00:17:29;;;;;;;4.03;2.63;;;;;;;;;;5094829;28;20044;-74
2022/07/09 00:19:56;;;;;;;3.42;2.47;;;;;;;;;;5094596;28;20044;-74
2022/07/09 00:22:23;;;;;;;5.38;2.70;;;;;;;;;;5094654;28;20056;-74
2022/07/09 00:24:49;;;;;;;4.50;3.00;;;;;;;;;;5094477;28;20047;-74
2022/07/09 00:27:16;;;;;;;3.35;2.78;;;;;;;;;;5094586;28;20307;-74
2022/07/09 00:29:42;;;;;;;2.88;2.47;;;;;;;;;;5094555;28;20097;-74
2022/07/09 00:32:09;;;;;;;5.05;2.83;;;;;;;;;;5094152;28;20484;-74
2022/07/09 00:34:35;;;;;;;3.53;2.50;;;;;;;;;;5094112;28;20077;-74
2022/07/09 00:37:02;;;;;;;4.32;3.10;;;;;;;;;;5094375;28;20112;-74
2022/07/09 00:39:28;;;;;;;4.25;3.22;;;;;;;;;;5094160;28;20575;-74
2022/07/09 00:42:05;;;;;;;3.45;3.03;;;;;;;;;;5094122;28;20044;-74
2022/07/09 00:44:31;;;;;;;4.50;2.70;;;;;;;;;;5094177;28;20132;-74
2022/07/09 00:46:58;;;;;;;4.82;2.70;;;;;;;;;;5093168;28;20044;-74
2022/07/09 00:49:26;;;;;;;3.70;3.17;;;;;;;;;;5093727;28;20126;-74
2022/07/09 00:51:53;;;;;;;2.90;2.70;;;;;;;;;;5094106;28;20044;-74
2022/07/09 00:54:19;;;;;;;4.00;2.80;;;;;;;;;;5094115;28;20048;-74
2022/07/09 00:56:46;;;;;;;4.65;2.60;;;;;;;;;;5094041;28;20048;-74
2022/07/09 00:59:13;;;;;;;2.83;2.63;;;;;;;;;;5093749;28;20090;-74
2022/07/09 01:01:40;;;;;;;3.08;2.78;;;;;;;;;;5093993;28;20048;-74
2022/07/09 01:04:07;;;;;;;5.53;3.28;;;;;;;;;;5093855;28;20412;-74
2022/07/09 01:06:36;;;;;;;4.93;3.10;;;;;;;;;;5093504;28;20105;-74
2022/07/09 01:09:03;;;;;;;5.28;3.47;;;;;;;;;;5082766;28;20040;-74
2022/07/09 01:11:30;;;;;;;4.13;2.83;;;;;;;;;;5084745;28;20494;-74
2022/07/09 01:13:57;;;;;;;4.15;3.30;;;;;;;;;;5092509;28;20164;-74
2022/07/09 01:16:31;;;;;;;3.38;2.80;;;;;;;;;;5093279;28;20047;-74
2022/07/09 01:18:57;;;;;;;4.50;3.47;;;;;;;;;;5093490;28;20052;-73
2022/07/09 01:21:24;;;;;;;3.83;3.40;;;;;;;;;;5091999;28;20052;-73
2022/07/09 01:23:50;;;;;;;4.18;3.25;;;;;;;;;;5093302;28;20052;-73
2022/07/09 01:26:19;;;;;;;3.10;2.75;;;;;;;;;;5093210;28;20541;-73
2022/07/09 01:28:46;;;;;;;3.63;3.10;;;;;;;;;;5093112;28;20121;-73
2022/07/09 01:31:13;;;;;;;3.50;2.83;;;;;;;;;;5093120;28;20040;-73
2022/07/09 01:33:40;;;;;;;3.08;2.70;;;;;;;;;;5093358;28;20043;-73
2022/07/09 01:36:07;;;;;;;6.10;2.97;;;;;;;;;;5093302;28;20051;-73
2022/07/09 01:38:34;;;;;;;4.00;2.78;;;;;;;;;;5091627;28;20508;-73
2022/07/09 01:41:01;;;;;;;;;;;;;;;;;;5093544;28;20056;-73
2022/07/09 01:43:27;;;;;;;2.88;2.40;;;;;;;;;;5093117;28;19997;-74
2022/07/09 01:45:54;;;;;;;4.88;3.10;;;;;;;;;;5092743;28;20393;-74
2022/07/09 01:48:20;;;;;;;3.75;2.55;;;;;;;;;;5092336;28;20048;-74
2022/07/09 01:50:47;;;;;;;4.47;3.22;;;;;;;;;;5092953;28;20455;-75
2022/07/09 01:53:13;;;;;;;4.25;2.75;;;;;;;;;;5093004;28;20467;-75
2022/07/09 01:55:40;;;;;;;4.13;2.75;;;;;;;;;;5092910;28;20109;-74
2022/07/09 01:58:07;;;;;;;4.15;2.97;;;;;;;;;;5092804;28;20458;-74
2022/07/09 02:00:33;;;;;;;4.32;3.03;;;;;;;;;;5091499;28;20043;-74
2022/07/09 02:03:00;;;;;;;3.78;3.17;;;;;;;;;;5092524;28;20487;-74
2022/07/09 02:05:26;;;;;;;3.35;2.60;;;;;;;;;;5092706;28;20052;-74
2022/07/09 02:07:53;;;;;;;3.22;2.85;;;;;;;;;;5092704;28;20105;-74
2022/07/09 02:10:19;;;;;;;2.65;2.45;;;;;;;;;;5092552;28;20048;-74
2022/07/09 02:12:46;;;;;;;3.50;2.70;;;;;;;;;;5090191;28;20040;-74
2022/07/09 02:15:13;;;;;;;5.30;3.20;;;;;;;;;;5092196;28;20043;-74
2022/07/09 02:17:39;;;;;;;3.83;2.83;;;;;;;;;;5092486;28;20052;-74
2022/07/09 02:20:06;;;;;;;4.05;3.10;;;;;;;;;;5092393;28;20417;-74
2022/07/09 02:22:32;;;;;;;4.15;2.72;;;;;;;;;;5092396;28;20127;-73
2022/07/09 02:24:59;;;;;;;3.05;2.30;;;;;;;;;;5091142;28;20109;-73
2022/07/09 02:27:25;;;;;;;5.05;2.80;;;;;;;;;;5092325;28;20048;-73
2022/07/09 02:29:52;;;;;;;3.25;2.70;;;;;;;;;;5091916;28;20051;-73
2022/07/09 02:32:18;;;;;;;3.60;2.78;;;;;;;;;;5092041;28;20044;-74
2022/07/09 02:34:45;;;;;;;3.47;2.45;;;;;;;;;;5092253;28;20446;-74
2022/07/09 02:37:11;;;;;;;2.90;2.60;;;;;;;;;;5092027;28;20056;-74
2022/07/09 02:39:38;;;;;;;3.25;2.47;;;;;;;;;;5091853;28;20095;-74
2022/07/09 02:42:05;;;;;;;4.47;2.58;;;;;;;;;;5091874;28;20052;-74
2022/07/09 02:44:31;;;;;;;3.50;3.20;;;;;;;;;;5092037;28;20418;-74
2022/07/09 02:46:59;;;;;;;3.85;2.58;;;;;;;;;;5090680;28;20105;-74
2022/07/09 02:49:26;;;;;;;2.65;2.40;;;;;;;;;;5091531;28;20055;-74
2022/07/09 02:51:54;;;;;;;4.22;2.60;;;;;;;;;;5091974;28;20044;-74
2022/07/09 02:54:21;;;;;;;4.15;3.08;;;;;;;;;;5092058;28;20093;-73
2022/07/09 02:56:47;;;;;;;4.23;3.33;;;;;;;;;;5091915;28;20442;-73
2022/07/09 02:59:14;;;;;;;2.90;2.70;;;;;;;;;;5091989;28;20097;-74
2022/07/09 03:01:41;;;;;;;4.00;2.90;;;;;;;;;;5091819;28;20051;-74
2022/07/09 03:04:07;;;;;;;3.22;2.47;;;;;;;;;;5091850;28;20758;-74
2022/07/09 03:06:34;;;;;;;2.53;2.33;;;;;;;;;;5091807;28;20048;-73
2022/07/09 03:09:00;;;;;;;3.30;2.30;;;;;;;;;;5091480;28;20487;-73
2022/07/09 03:11:27;;;;;;;3.47;2.63;;;;;;;;;;5094270;28;20044;-74
2022/07/09 03:13:54;;;;;;;2.40;2.20;;;;;;;;;;5096066;28;20197;-74
2022/07/09 03:16:20;;;;;;;3.25;2.38;;;;;;;;;;5095903;28;20048;-74
2022/07/09 03:18:47;;;;;;;2.47;2.22;;;;;;;;;;5095578;28;20059;-74
2022/07/09 03:21:13;;;;;;;3.50;2.65;;;;;;;;;;5095784;28;20052;-74
2022/07/09 03:23:40;;;;;;;3.40;2.60;;;;;;;;;;5095688;28;20097;-74
2022/07/09 03:26:06;;;;;;;3.05;2.70;;;;;;;;;;5095499;28;20048;-74
2022/07/09 03:28:33;;;;;;;3.47;3.17;;;;;;;;;;5095707;28;20097;-74
2022/07/09 03:31:00;;;;;;;;;;;;;;;;;;5095778;28;20123;-74
2022/07/09 03:33:27;;;;;;;4.68;3.10;;;;;;;;;;5095425;28;19920;-74
2022/07/09 03:35:55;;;;;;;3.08;2.80;;;;;;;;;;5095358;28;20048;-74
2022/07/09 03:38:22;;;;;;;3.97;3.28;;;;;;;;;;5095329;28;20044;-74
2022/07/09 03:40:49;;;;;;;6.53;2.83;;;;;;;;;;5095837;28;20055;-74
2022/07/09 03:43:15;;;;;;;3.00;2.70;;;;;;;;;;5095347;28;20040;-75
2022/07/09 03:45:42;;;;;;;4.40;2.75;;;;;;;;;;5095493;28;20211;-75
2022/07/09 03:48:08;;;;;;;6.32;2.97;;;;;;;;;;5094783;28;20512;-75
2022/07/09 03:50:35;;;;;;;4.15;2.80;;;;;;;;;;5095296;28;20048;-75
2022/07/09 03:53:01;;;;;;;3.70;3.40;;;;;;;;;;5095164;28;20048;-75
2022/07/09 03:55:29;;;;;;;3.10;2.90;;;;;;;;;;5095003;28;20044;-75
2022/07/09 03:57:55;;;;;;;3.70;3.22;;;;;;;;;;5094981;28;20097;-75
2022/07/09 04:00:22;;;;;;;3.53;3.08;;;;;;;;;;5095202;28;20101;-75
2022/07/09 04:02:48;;;;;;;3.30;2.40;;;;;;;;;;5094814;28;20056;-74
2022/07/09 04:05:15;;;;;;;4.40;2.78;;;;;;;;;;5094814;28;20052;-74
2022/07/09 04:07:41;;;;;;;3.65;2.88;;;;;;;;;;5093489;28;20044;-74
2022/07/09 04:10:08;;;;;;;3.90;2.72;;;;;;;;;;5094565;28;20050;-74
2022/07/09 04:12:35;;;;;;;2.88;2.63;;;;;;;;;;5094897;28;20056;-74
2022/07/09 04:15:01;;;;;;;2.70;2.50;;;;;;;;;;5094771;28;20047;-74
2022/07/09 04:17:28;;;;;;;4.22;3.42;;;;;;;;;;5094679;28;20101;-74
2022/07/09 04:19:55;;;;;;;4.20;3.13;;;;;;;;;;5094669;28;20484;-74
2022/07/09 04:22:21;;;;;;;4.68;3.20;;;;;;;;;;5093384;28;20113;-74
2022/07/09 04:24:48;;;;;;;2.15;1.98;;;;;;;;;;5094684;28;20047;-74
2022/07/09 04:27:14;;;;;;;4.28;2.70;;;;;;;;;;5094702;28;20048;-74
2022/07/09 04:29:41;;;;;;;3.20;2.90;;;;;;;;;;5094572;28;20052;-74
2022/07/09 04:32:07;;;;;;;5.22;2.65;;;;;;;;;;5094247;28;20453;-74
2022/07/09 04:34:34;;;;;;;2.43;2.23;;;;;;;;;;5094256;28;20044;-74
2022/07/09 04:37:00;;;;;;;2.78;2.50;;;;;;;;;;5094331;28;20337;-74
2022/07/09 04:39:27;;;;;;;4.10;3.05;;;;;;;;;;5094334;28;20112;-74
2022/07/09 04:41:53;;;;;;;4.45;2.72;;;;;;;;;;5094072;28;20056;-74
2022/07/09 04:44:20;;;;;;;5.15;2.67;;;;;;;;;;5092543;28;20048;-74
2022/07/09 04:46:46;;;;;;;3.75;2.58;;;;;;;;;;5094061;28;20044;-74
2022/07/09 04:49:13;;;;;;;3.25;2.47;;;;;;;;;;5093576;28;20847;-74
2022/07/09 04:51:39;;;;;;;2.60;2.40;;;;;;;;;;5094123;28;20484;-74
2022/07/09 04:54:06;;;;;;;3.53;2.97;;;;;;;;;;5093955;28;20120;-74
2022/07/09 04:56:32;;;;;;;3.50;2.78;;;;;;;;;;5093813;28;20117;-74
2022/07/09 04:59:02;;;;;;;3.90;3.13;;;;;;;;;;5093743;28;20450;-74
2022/07/09 05:01:29;;;;;;;3.47;2.60;;;;;;;;;;5093630;28;20044;-74
2022/07/09 05:03:56;;;;;;;3.08;2.80;;;;;;;;;;5093595;28;20624;-74
2022/07/09 05:06:23;;;;;;;6.65;2.80;;;;;;;;;;5093732;28;20048;-73
2022/07/09 05:08:50;;;;;;;4.63;2.90;;;;;;;;;;5092515;28;20048;-74
2022/07/09 05:11:16;;;;;;;3.83;2.88;;;;;;;;;;5093458;28;20116;-73
2022/07/09 05:13:46;;;;;;;5.57;2.80;;;;;;;;;;5093429;28;20044;-73
2022/07/09 05:16:12;;;;;;;3.15;2.60;;;;;;;;;;5093382;28;20487;-78
2022/07/09 05:18:39;;;;;;;4.45;3.20;;;;;;;;;;5093584;28;20040;-73
2022/07/09 05:21:06;;;;;;;5.20;2.72;;;;;;;;;;5093160;28;20097;-73
2022/07/09 05:23:33;;;;;;;3.40;2.65;;;;;;;;;;5093257;28;20056;-73
2022/07/09 05:26:00;;;;;;;5.35;3.50;;;;;;;;;;5093228;28;20129;-73
2022/07/09 05:28:26;;;;;;;4.05;2.65;;;;;;;;;;5093511;28;20055;-73
2022/07/09 05:30:53;;;;;;;4.07;2.95;;;;;;;;;;5092918;28;20048;-73
2022/07/09 05:33:40;;;;;;;3.47;2.78;;;;;;;;;;5092692;28;20135;-73
2022/07/09 05:36:06;;;;;;;3.60;3.03;;;;;;;;;;5092858;28;20090;-73
2022/07/09 05:38:33;;;;;;;5.28;3.28;;;;;;;;;;5093081;28;20074;-73
2022/07/09 05:41:00;;;;;;;3.33;3.03;;;;;;;;;;5093142;28;20048;-73
2022/07/09 05:43:26;;;;;;;3.70;3.22;;;;;;;;;;5093038;28;20427;-73
2022/07/09 05:45:53;;;;;;;3.30;3.00;;;;;;;;;;5093026;28;20055;-73
2022/07/09 05:48:20;;;;;;;4.60;2.80;;;;;;;;;;5092831;28;20056;-73
2022/07/09 05:50:46;;;;;;;3.42;3.13;;;;;;;;;;5092791;28;20052;-73
2022/07/09 05:53:13;;;;;;;3.53;3.22;;;;;;;;;;5091331;28;20560;-73
2022/07/09 05:55:39;;;;;;;7.43;3.72;;;;;;;;;;5092952;28;20102;-73
2022/07/09 05:58:06;;;;;;;3.97;3.00;;;;;;;;;;5092710;28;20441;-73
2022/07/09 06:00:32;;;;;;;4.65;3.10;;;;;;;;;;5092827;28;20056;-73
2022/07/09 06:02:59;;;;;;;5.43;3.30;;;;;;;;;;5092410;28;20109;-73
2022/07/09 06:05:25;;;;;;;3.65;2.90;;;;;;;;;;5092798;28;20048;-73
2022/07/09 06:07:52;;;;;;;5.00;2.83;;;;;;;;;;5092254;28;20078;-73
2022/07/09 06:10:18;;;;;;;4.57;3.28;;;;;;;;;;5090984;28;20410;-73
2022/07/09 06:12:45;;;;;;;2.85;2.65;;;;;;;;;;5092280;28;20048;-73
2022/07/09 06:15:11;;;;;;;2.72;2.08;;;;;;;;;;5092549;28;20089;-73
2022/07/09 06:17:38;;;;;;;5.03;2.22;;;;;;;;;;5092331;28;20044;-73
2022/07/09 06:20:05;;;;;;;5.13;2.30;;;;;;;;;;5092207;28;20044;-73
2022/07/09 06:22:32;;;;;;;4.05;1.95;;;;;;;;;;5092428;28;20480;-73
2022/07/09 06:24:58;;;;;;;3.63;2.10;;;;;;;;;;5092345;28;20132;-73
2022/07/09 06:27:25;;;;;;;2.30;2.10;;;;;;;;;;5092051;28;20055;-73
2022/07/09 06:29:52;;;;;;;3.03;1.90;;;;;;;;;;5092006;28;20044;-73
2022/07/09 06:32:18;;;;;;;2.83;1.83;;;;;;;;;;5092248;28;20377;-73
2022/07/09 06:34:44;;;;;;;1.63;1.50;;;;;;;;;;5092069;28;20094;-73
2022/07/09 06:37:11;;;;;;;1.60;1.50;;;;;;;;;;5091928;28;20097;-73
2022/07/09 06:39:44;;;;;;;1.92;1.50;;;;;;;;;;5091855;28;20048;-73
2022/07/09 06:42:11;;;;;;;2.85;1.38;;;;;;;;;;5092223;28;20444;-73
2022/07/09 06:44:38;;;;;;;1.40;1.30;;;;;;;;;;5091374;28;20488;-73
2022/07/09 06:47:04;;;;;;;1.63;1.20;;;;;;;;;;5091688;28;20097;-73
2022/07/09 06:49:31;;;;;;;1.50;1.00;;;;;;;;;;5091535;28;20074;-73
2022/07/09 06:51:58;;;;;;;1.20;1.10;;;;;;;;;;5091730;28;20097;-73
2022/07/09 06:54:25;;;;;;;1.17;1.08;;;;;;;;;;5091986;28;20044;-73
2022/07/09 06:56:52;;;;;;;1.67;1.30;;;;;;;;;;5091896;28;20052;-74
2022/07/09 06:59:19;;;;;;;1.30;1.20;;;;;;;;;;5092004;28;20044;-74
2022/07/09 07:01:45;;;;;;;1.30;1.20;;;;;;;;;;5091756;28;20048;-72
2022/07/09 07:04:12;;;;;;;0.90;0.90;;;;;;;;;;5091673;28;20052;-74
2022/07/09 07:06:39;;;;;;;1.30;1.20;;;;;;;;;;5091447;28;20516;-72
2022/07/09 07:09:06;;;;;;;2.00;1.20;;;;;;;;;;5091539;28;20074;-72
2022/07/09 07:11:32;;;;;;;1.03;1.03;;;;;;;;;;5091271;28;20074;-72
2022/07/09 07:13:59;;;;;;;1.80;1.30;;;;;;;;;;5091768;28;20101;-72
2022/07/09 07:16:25;;;;;;;2.23;1.23;;;;;;;;;;5091691;28;20044;-72
2022/07/09 07:18:53;;;;;;;1.92;1.25;;;;;;;;;;5091541;28;20052;-72
2022/07/09 07:21:19;;;;;;;;;;;;;;;;;;5091111;28;20044;-73
2022/07/09 07:23:46;;;;;;;4.38;2.50;;;;;;;;;;5089724;28;20473;-73
2022/07/09 07:26:12;;;;;;;5.13;4.35;;;;;;;;;;5090707;28;20056;-72
2022/07/09 07:28:39;;;;;;;1.87;1.37;;;;;;;;;;5090848;28;20048;-72
2022/07/09 07:31:05;;;;;;;2.00;1.33;;;;;;;;;;5089112;28;20110;-73
2022/07/09 07:33:32;;;;;;;1.23;0.90;;;;;;;;;;5091268;28;20093;-73
2022/07/09 07:35:58;;;;;;;1.47;1.03;;;;;;;;;;5089268;28;20048;-73
2022/07/09 07:38:27;;;;;;;0.83;0.83;;;;;;;;;;5080538;28;20048;-73
2022/07/09 07:40:54;;;;;;;1.63;1.17;;;;;;;;;;5091331;28;20048;-73
2022/07/09 07:43:20;;;;;;;1.27;1.17;;;;;;;;;;5091438;28;20063;-73
2022/07/09 07:45:47;;;;;;;1.63;1.10;;;;;;;;;;5090207;28;20453;-73
2022/07/09 07:48:14;;;;;;;1.70;1.10;;;;;;;;;;5091207;28;20087;-72
2022/07/09 07:50:40;;;;;;;1.00;0.90;;;;;;;;;;5090750;28;20093;-72
2022/07/09 07:53:07;;;;;;;0.93;0.75;;;;;;;;;;5091338;28;20295;-73
2022/07/09 07:55:33;;;;;;;1.50;1.08;;;;;;;;;;5091059;28;20052;-73
2022/07/09 07:58:00;;;;;;;0.77;0.65;;;;;;;;;;5092925;28;20047;-73
2022/07/09 08:00:27;;;;;;;1.75;0.82;;;;;;;;;;5095127;28;20044;-73
2022/07/09 08:02:54;;;;;;;2.03;1.80;;;;;;;;;;5094707;28;20081;-73
2022/07/09 08:05:21;;;;;;;1.27;0.80;;;;;;;;;;5094712;28;20565;-73
2022/07/09 08:07:47;;;;;;;0.80;0.80;;;;;;;;;;5094631;28;20040;-74
2022/07/09 08:10:14;;;;;;;1.52;0.90;;;;;;;;;;5094916;28;20059;-74
2022/07/09 08:12:41;;;;;;;1.38;1.08;;;;;;;;;;5094171;28;20492;-72
2022/07/09 08:15:07;;;;;;;1.25;1.00;;;;;;;;;;5090295;28;20044;-73
2022/07/09 08:17:34;;;;;;;1.20;0.80;;;;;;;;;;5093007;28;20397;-74
2022/07/09 08:20:00;;;;;;;0.98;0.98;;;;;;;;;;5091552;28;20040;-73
2022/07/09 08:22:27;;;;;;;1.10;1.05;;;;;;;;;;5094584;28;20056;-73
2022/07/09 08:24:53;;;;;;;0.75;0.75;;;;;;;;;;5094588;28;20052;-74
2022/07/09 08:27:20;;;;;;;1.52;0.80;;;;;;;;;;5094633;28;20044;-73
2022/07/09 08:29:48;;;;;;;;;;;;;;;;;;5094722;28;20047;-72
2022/07/09 08:32:15;;;;;;;2.10;0.90;;;;;;;;;;5093884;28;20428;-73
2022/07/09 08:34:41;;;;;;;0.88;0.88;;;;;;;;;;5094415;28;20051;-73
2022/07/09 08:37:08;;;;;;;1.50;0.80;;;;;;;;;;5093999;28;20047;-73
2022/07/09 08:39:34;;;;;;;;;;;;;;;;;;5094206;28;20097;-72
2022/07/09 08:42:02;;;;;;;0.90;0.60;;;;;;;;;;5092751;28;19981;-72
2022/07/09 08:44:29;;;;;;;1.10;0.60;;;;;;;;;;5093279;28;20446;-71
2022/07/09 08:46:58;;;;;;;0.60;0.60;;;;;;;;;;5093733;28;20052;-66
2022/07/09 08:49:25;;;;;;;0.70;0.63;;;;;;;;;;5093894;28;20059;-66
2022/07/09 08:51:53;;;;;;;0.80;0.52;;;;;;;;;;5094021;28;20105;-66
2022/07/09 08:54:20;;;;;;;1.73;0.60;;;;;;;;;;5092594;28;20454;-66
2022/07/09 08:56:46;;;;;;;;;;;;;;;;;;5094481;28;20044;-66
2022/07/09 08:59:13;;;;;;;0.82;0.70;;;;;;;;;;5093734;28;19969;-66
2022/07/09 09:01:39;;;;;;;3.22;0.90;;;;;;;;;;5094022;28;20129;-66
2022/07/09 09:04:06;;;;;;;0.65;0.60;;;;;;;;;;5093537;28;20051;-66
2022/07/09 09:06:36;;;;;;;0.50;0.50;;;;;;;;;;5091014;28;20056;-66
2022/07/09 09:09:10;;;;;;;2.00;1.23;;;;;;;;;;5093149;28;20083;-66
2022/07/09 09:11:37;;;;;;;1.48;0.90;;;;;;;;;;5093395;28;20048;-66
2022/07/09 09:14:03;;;;;;;1.05;1.05;;;;;;;;;;5093375;28;20062;-66
2022/07/09 09:16:30;;;;;;;0.70;0.70;;;;;;;;;;5092460;28;20044;-66
2022/07/09 09:18:57;;;;;;;;;;;;;;;;;;5093703;28;20484;-66
2022/07/09 09:21:23;;;;;;;;;;;;;;;;;;5093947;28;19919;-66
2022/07/09 09:23:52;;;;;;;0.55;0.55;;;;;;;;;;5093155;28;19965;-66
2022/07/09 09:26:19;;;;;;;0.40;0.40;;;;;;;;;;5093436;28;20466;-66
2022/07/09 09:28:52;;;;;;;0.40;0.40;;;;;;;;;;5093384;28;20074;-66
2022/07/09 09:31:22;;;;;;;1.33;0.60;;;;;;;;;;5093041;28;20557;-66
2022/07/09 09:33:50;;;;;;;0.95;0.80;;;;;;;;;;5093125;28;20048;-67
2022/07/09 09:36:35;;;;;;;0.90;0.55;;;;;;;;;;5092902;28;20457;-67
2022/07/09 09:39:10;;;;;;;1.42;1.33;;;;;;;;;;5092931;28;20044;-66
2022/07/09 09:41:37;;;;;;;0.60;0.60;;;;;;;;;;5092627;28;20048;-67
2022/07/09 09:44:10;;;;;;;1.50;0.80;;;;;;;;;;5092965;28;20093;-67
2022/07/09 09:46:37;;;;;;;1.70;1.00;;;;;;;;;;5091830;28;20475;-67
2022/07/09 09:49:07;;;;;;;1.73;0.85;;;;;;;;;;5092683;28;20071;-66
2022/07/09 09:51:35;;;;;;;1.38;0.80;;;;;;;;;;5092772;28;20476;-67
2022/07/09 09:54:03;;;;;;;1.27;1.00;;;;;;;;;;5092948;28;20040;-67
2022/07/09 09:56:30;;;;;;;1.42;1.13;;;;;;;;;;5092714;28;20109;-67
2022/07/09 09:58:58;;;;;;;0.93;0.80;;;;;;;;;;5092844;28;20453;-67
2022/07/09 10:01:25;;;;;;;0.50;0.50;;;;;;;;;;5092502;28;20056;-67
2022/07/09 10:03:53;;;;;;;1.27;0.80;;;;;;;;;;5091235;28;20078;-66
2022/07/09 10:06:19;;;;;;;2.03;1.23;;;;;;;;;;5091093;28;20339;-67
2022/07/09 10:08:46;;;;;;;1.02;0.93;;;;;;;;;;5091522;28;20047;-67
2022/07/09 10:11:13;;;;;;;;;;;;;;;;;;5092454;28;20101;-66
2022/07/09 10:13:39;;;;;;;;;;;;;;;;;;5092400;28;19979;-66
2022/07/09 10:16:05;;;;;;;;;;;;;;;;;;5090806;28;19973;-67
2022/07/09 10:18:32;;;;;;;2.35;0.50;;;;;;;;;;5079458;28;19920;-66
2022/07/09 10:20:59;;;;;;;0.98;0.73;;;;;;;;;;5090925;28;20127;-65
2022/07/09 10:23:28;;;;;;;;;;;;;;;;;;5092431;28;20113;-65
2022/07/09 10:25:58;;;;;;;0.88;0.40;;;;;;;;;;5092029;28;19980;-67
2022/07/09 10:28:27;;;;;;;0.47;0.47;;;;;;;;;;5087652;28;20060;-66
2022/07/09 10:30:53;;;;;;;0.40;0.40;;;;;;;;;;5085979;28;20093;-67
2022/07/09 10:33:31;;;;;;;0.38;0.30;;;;;;;;;;5092229;28;20412;-67
2022/07/09 10:36:08;;;;;;;0.30;0.30;;;;;;;;;;5091873;28;20044;-67
2022/07/09 10:38:38;;;;;;;0.30;0.30;;;;;;;;;;5091970;28;20047;-67
2022/07/09 10:41:05;;;;;;;0.30;0.30;;;;;;;;;;5091809;28;20047;-67
2022/07/09 10:43:44;;;;;;;0.30;0.30;;;;;;;;;;5092066;28;20056;-67
2022/07/09 10:46:14;;;;;;;1.75;0.82;;;;;;;;;;5092078;28;20040;-67
2022/07/09 10:48:41;;;;;;;0.47;0.30;;;;;;;;;;5091591;28;20135;-67
2022/07/09 10:51:07;;;;;;;1.52;0.47;;;;;;;;;;5091831;28;20048;-67
2022/07/09 10:53:34;;;;;;;2.42;0.70;;;;;;;;;;5091976;28;20121;-66
2022/07/09 10:56:00;;;;;;;1.00;0.40;;;;;;;;;;5091565;28;20044;-66
2022/07/09 10:58:28;;;;;;;3.78;0.28;;;;;;;;;;5091845;28;20097;-67
2022/07/09 11:00:57;;;;;;;1.48;0.50;;;;;;;;;;5091601;28;20048;-67
2022/07/09 11:03:25;;;;;;;0.50;0.50;;;;;;;;;;5091876;28;20105;-67
2022/07/09 11:05:52;;;;;;;0.80;0.45;;;;;;;;;;5091540;28;20097;-66
2022/07/09 11:08:18;;;;;;;0.75;0.50;;;;;;;;;;5091454;28;20072;-66
2022/07/09 11:10:45;;;;;;;0.40;0.40;;;;;;;;;;5090568;28;20044;-66
2022/07/09 11:13:16;;;;;;;0.95;0.40;;;;;;;;;;5091747;28;20066;-66
2022/07/09 11:15:43;;;;;;;1.45;0.50;;;;;;;;;;5091477;28;20093;-66
2022/07/09 11:18:11;;;;;;;0.30;0.30;;;;;;;;;;5091439;28;20052;-66
2022/07/09 11:20:38;;;;;;;1.27;0.43;;;;;;;;;;5090127;28;20380;-65
2022/07/09 11:23:04;;;;;;;;;;;;;;;;;;5091674;28;20113;-66
2022/07/09 11:25:30;;;;;;;2.70;0.50;;;;;;;;;;5091186;28;19950;-66
2022/07/09 11:27:58;;;;;;;1.40;0.65;;;;;;;;;;5091275;28;20044;-67
2022/07/09 11:30:25;;;;;;;0.28;0.25;;;;;;;;;;5091350;28;20416;-66
2022/07/09 11:32:52;;;;;;;1.38;1.27;;;;;;;;;;5094589;28;20040;-67
2022/07/09 11:35:25;;;;;;;1.13;0.40;;;;;;;;;;5094160;28;20052;-66
2022/07/09 11:37:52;;;;;;;0.65;0.38;;;;;;;;;;5095508;28;20048;-66
2022/07/09 11:40:19;;;;;;;2.90;0.57;;;;;;;;;;5095226;28;20119;-66
2022/07/09 11:42:45;;;;;;;0.30;0.30;;;;;;;;;;5094014;28;20129;-66
2022/07/09 11:45:12;;;;;;;1.85;0.40;;;;;;;;;;5095129;28;20048;-66
2022/07/09 11:47:39;;;;;;;0.73;0.50;;;;;;;;;;5095026;28;20469;-67
2022/07/09 11:50:14;;;;;;;1.08;0.45;;;;;;;;;;5094589;28;20074;-66
2022/07/09 11:52:47;;;;;;;0.60;0.40;;;;;;;;;;5093464;28;20047;-66
2022/07/09 11:55:15;;;;;;;0.30;0.30;;;;;;;;;;5094866;28;20048;-66
2022/07/09 11:57:50;;;;;;;1.35;0.30;;;;;;;;;;5093158;28;20525;-66
2022/07/09 12:00:27;;;;;;;0.60;0.40;;;;;;;;;;5095352;28;20063;-65
2022/07/09 12:02:55;;;;;;;1.00;0.40;;;;;;;;;;5094885;28;20044;-66
2022/07/09 12:05:40;;;;;;;3.05;0.47;;;;;;;;;;5094932;28;20048;-66
2022/07/09 12:08:07;;;;;;;1.27;0.30;;;;;;;;;;5094476;28;20040;-66
2022/07/09 12:10:35;;;;;;;0.30;0.30;;;;;;;;;;5093931;28;20036;-66
2022/07/09 12:13:02;;;;;;;2.47;0.43;;;;;;;;;;5093906;28;20044;-66
2022/07/09 12:15:29;;;;;;;0.75;0.30;;;;;;;;;;5094620;28;20528;-67
2022/07/09 12:17:56;;;;;;;0.80;0.45;;;;;;;;;;5094505;28;20570;-66
2022/07/09 12:20:23;;;;;;;1.17;0.40;;;;;;;;;;5094713;28;20047;-77
2022/07/09 12:22:50;;;;;;;1.02;0.32;;;;;;;;;;5094444;28;20048;-77
2022/07/09 12:25:16;;;;;;;0.30;0.20;;;;;;;;;;5094143;28;20453;-78
2022/07/09 12:27:43;;;;;;;0.68;0.50;;;;;;;;;;5094680;28;20048;-77
2022/07/09 12:30:10;;;;;;;0.38;0.38;;;;;;;;;;5094792;28;20101;-76
2022/07/09 12:32:36;;;;;;;0.38;0.38;;;;;;;;;;5094489;28;20118;-77
2022/07/09 12:35:03;;;;;;;0.30;0.30;;;;;;;;;;5092651;28;20460;-77
2022/07/09 12:37:30;;;;;;;0.32;0.32;;;;;;;;;;5094143;28;20089;-76
2022/07/09 12:39:56;;;;;;;0.30;0.30;;;;;;;;;;5094412;28;20097;-76
2022/07/09 12:42:23;;;;;;;0.47;0.40;;;;;;;;;;5094133;28;20450;-76
2022/07/09 12:44:52;;;;;;;0.30;0.30;;;;;;;;;;5093561;28;20055;-76
2022/07/09 12:47:19;;;;;;;0.57;0.30;;;;;;;;;;5094333;28;20044;-76
2022/07/09 12:49:45;;;;;;;0.98;0.25;;;;;;;;;;5092542;28;20125;-77
2022/07/09 12:52:12;;;;;;;0.40;0.40;;;;;;;;;;5093903;28;20446;-77
2022/07/09 12:54:38;;;;;;;0.40;0.40;;;;;;;;;;5094365;28;20044;-77
2022/07/09 12:57:05;;;;;;;0.65;0.20;;;;;;;;;;5093915;28;20093;-77
2022/07/09 12:59:35;;;;;;;0.30;0.30;;;;;;;;;;5093785;28;20048;-77
2022/07/09 13:02:02;;;;;;;1.02;0.30;;;;;;;;;;5093783;28;20066;-78
2022/07/09 13:04:29;;;;;;;0.30;0.30;;;;;;;;;;5093919;28;20048;-77
2022/07/09 13:06:55;;;;;;;0.73;0.40;;;;;;;;;;5093853;28;20055;-77
2022/07/09 13:09:22;;;;;;;0.22;0.20;;;;;;;;;;5093928;28;20051;-78
2022/07/09 13:11:49;;;;;;;0.45;0.22;;;;;;;;;;5092440;28;20498;-77
2022/07/09 13:14:16;;;;;;;0.25;0.25;;;;;;;;;;5092421;28;20052;-77
2022/07/09 13:16:42;;;;;;;1.30;0.40;;;;;;;;;;5093566;28;20044;-77
2022/07/09 13:19:23;;;;;;;0.30;0.30;;;;;;;;;;5093501;28;20047;-77
2022/07/09 13:21:50;;;;;;;0.75;0.30;;;;;;;;;;5093546;28;20063;-77
2022/07/09 13:24:16;;;;;;;0.40;0.35;;;;;;;;;;5093179;28;20051;-77
2022/07/09 13:26:43;;;;;;;0.57;0.43;;;;;;;;;;5093626;28;20079;-78
2022/07/09 13:29:10;;;;;;;0.90;0.30;;;;;;;;;;5093461;28;20385;-78
2022/07/09 13:31:36;;;;;;;0.38;0.38;;;;;;;;;;5093170;28;20052;-78
2022/07/09 13:34:03;;;;;;;0.80;0.30;;;;;;;;;;5093030;28;20410;-79
2022/07/09 13:36:30;;;;;;;1.00;0.40;;;;;;;;;;5093420;28;20043;-78
2022/07/09 13:38:56;;;;;;;0.30;0.30;;;;;;;;;;5092926;28;20082;-78
2022/07/09 13:41:23;;;;;;;3.58;0.30;;;;;;;;;;5093409;28;20097;-78
2022/07/09 13:43:50;;;;;;;0.93;0.30;;;;;;;;;;5093204;28;20048;-77
2022/07/09 13:46:17;;;;;;;0.22;0.20;;;;;;;;;;5092572;28;20120;-77
2022/07/09 13:48:43;;;;;;;0.47;0.28;;;;;;;;;;5092598;28;20052;-78
2022/07/09 13:51:10;;;;;;;0.30;0.30;;;;;;;;;;5092965;28;20097;-78
2022/07/09 13:53:36;;;;;;;0.40;0.40;;;;;;;;;;5092825;28;20047;-77
2022/07/09 13:56:04;;;;;;;0.40;0.40;;;;;;;;;;5091394;28;20419;-77
2022/07/09 13:58:31;;;;;;;0.30;0.30;;;;;;;;;;5092884;28;20047;-78
2022/07/09 14:00:58;;;;;;;1.15;0.30;;;;;;;;;;5092596;28;20051;-78
2022/07/09 14:03:25;;;;;;;1.45;0.50;;;;;;;;;;5092464;28;20055;-75
2022/07/09 14:05:51;;;;;;;0.32;0.30;;;;;;;;;;5089837;28;20055;-69
2022/07/09 14:08:18;;;;;;;0.30;0.30;;;;;;;;;;5073078;28;20106;-66
2022/07/09 14:10:46;;;;;;;1.85;0.40;;;;;;;;;;5070939;28;20052;-70
2022/07/09 14:13:13;;;;;;;0.40;0.38;;;;;;;;;;5071523;28;20044;-69
2022/07/09 14:15:39;;;;;;;0.55;0.30;;;;;;;;;;5071650;28;20098;-71
2022/07/09 14:18:06;;;;;;;0.90;0.40;;;;;;;;;;5071590;28;20048;-73
2022/07/09 14:20:33;;;;;;;1.70;0.50;;;;;;;;;;5071619;28;20078;-72
2022/07/09 14:22:59;;;;;;;0.77;0.45;;;;;;;;;;5070539;28;20052;-69
2022/07/09 14:25:26;;;;;;;1.17;0.40;;;;;;;;;;5071572;28;20106;-71
2022/07/09 14:27:53;;;;;;;0.40;0.38;;;;;;;;;;5083924;28;20089;-70
2022/07/09 14:30:20;;;;;;;0.65;0.55;;;;;;;;;;5090639;28;20518;-72
2022/07/09 14:32:47;;;;;;;0.50;0.38;;;;;;;;;;5090998;28;20378;-69
2022/07/09 14:35:13;;;;;;;0.73;0.40;;;;;;;;;;5091603;28;20073;-69
2022/07/09 14:37:40;;;;;;;0.45;0.40;;;;;;;;;;5091285;28;20434;-70
2022/07/09 14:40:07;;;;;;;0.50;0.50;;;;;;;;;;5091173;28;20430;-70
2022/07/09 14:42:34;;;;;;;1.38;0.40;;;;;;;;;;5091034;28;20559;-77
2022/07/09 14:45:00;;;;;;;0.90;0.40;;;;;;;;;;5089938;28;20120;-77
2022/07/09 14:47:27;;;;;;;0.68;0.40;;;;;;;;;;5090858;28;20039;-78